createdAt,value
2018-02-17T00:01:22.017Z,2.10
2018-02-17T00:03:49.477Z,2.10
2018-02-17T00:06:16.937Z,2.10
2018-02-17T00:08:44.389Z,2.10
2018-02-17T00:11:11.857Z,2.00
2018-02-17T00:13:39.305Z,2.00
2018-02-17T00:16:06.768Z,2.00
2018-02-17T00:18:34.221Z,2.00
2018-02-17T00:21:01.681Z,2.00
2018-02-17T00:23:29.138Z,2.00
2018-02-17T00:25:56.610Z,2.00
2018-02-17T00:28:24.062Z,2.00
2018-02-17T00:30:51.526Z,2.00
2018-02-17T00:33:18.986Z,1.90
2018-02-17T00:35:46.471Z,1.90
2018-02-17T00:38:14.688Z,1.90
2018-02-17T00:40:42.917Z,1.90
2018-02-17T00:43:10.378Z,1.90
2018-02-17T00:45:37.861Z,1.90
2018-02-17T00:48:06.108Z,1.90
2018-02-17T00:50:33.558Z,1.90
2018-02-17T00:53:01.026Z,1.90
2018-02-17T00:55:28.478Z,1.90
2018-02-17T00:57:55.936Z,1.80
2018-02-17T01:00:23.393Z,1.80
2018-02-17T01:02:50.859Z,1.80
2018-02-17T01:05:18.305Z,1.70
2018-02-17T01:07:45.766Z,1.80
2018-02-17T01:10:13.221Z,1.80
2018-02-17T01:12:40.690Z,1.80
2018-02-17T01:15:08.138Z,1.80
2018-02-17T01:17:35.597Z,1.80
2018-02-17T01:20:03.055Z,1.90
2018-02-17T01:22:30.521Z,1.90
2018-02-17T01:24:57.966Z,1.90
2018-02-17T01:27:25.424Z,1.90
2018-02-17T01:29:52.881Z,1.90
2018-02-17T01:32:20.338Z,1.90
2018-02-17T01:34:47.794Z,2.00
2018-02-17T01:37:15.255Z,2.00
2018-02-17T01:39:42.705Z,2.00
2018-02-17T01:42:10.170Z,2.00
2018-02-17T01:44:37.621Z,2.00
2018-02-17T01:47:05.080Z,2.00
2018-02-17T01:49:32.530Z,2.10
2018-02-17T01:51:59.995Z,2.10
2018-02-17T01:54:27.450Z,2.10
2018-02-17T01:56:54.917Z,2.10
2018-02-17T01:59:23.181Z,2.20
2018-02-17T02:01:50.641Z,2.10
2018-02-17T02:04:18.103Z,2.10
2018-02-17T02:06:45.553Z,2.20
2018-02-17T02:09:13.012Z,2.20
2018-02-17T02:11:40.476Z,2.20
2018-02-17T02:14:07.935Z,2.20
2018-02-17T02:16:35.390Z,2.10
2018-02-17T02:19:02.875Z,2.10
2018-02-17T02:21:30.326Z,2.10
2018-02-17T02:23:57.789Z,2.10
2018-02-17T02:26:25.242Z,2.10
2018-02-17T02:28:52.700Z,2.10
2018-02-17T02:31:20.158Z,2.10
2018-02-17T02:33:47.622Z,2.10
2018-02-17T02:36:15.079Z,2.10
2018-02-17T02:38:42.530Z,2.10
2018-02-17T02:41:09.986Z,2.10
2018-02-17T02:43:37.453Z,2.10
2018-02-17T02:46:04.906Z,2.00
2018-02-17T02:48:32.388Z,2.00
2018-02-17T02:51:00.609Z,2.00
2018-02-17T02:53:28.079Z,2.00
2018-02-17T02:55:55.528Z,2.00
2018-02-17T02:58:22.988Z,2.00
2018-02-17T03:00:50.441Z,2.00
2018-02-17T03:03:17.901Z,2.00
2018-02-17T03:05:45.353Z,2.00
2018-02-17T03:08:12.817Z,2.00
2018-02-17T03:10:40.273Z,2.00
2018-02-17T03:13:07.737Z,2.00
2018-02-17T03:15:35.185Z,2.10
2018-02-17T03:18:02.645Z,2.10
2018-02-17T03:20:30.101Z,2.10
2018-02-17T03:22:57.573Z,2.10
2018-02-17T03:25:25.030Z,2.10
2018-02-17T03:27:52.473Z,2.20
2018-02-17T03:30:19.932Z,2.20
2018-02-17T03:32:47.384Z,2.20
2018-02-17T03:35:14.850Z,2.20
2018-02-17T03:37:42.300Z,2.20
2018-02-17T03:40:09.769Z,2.20
2018-02-17T03:42:37.217Z,2.30
2018-02-17T03:45:04.688Z,2.30
2018-02-17T03:47:32.163Z,2.30
2018-02-17T03:50:00.402Z,2.30
2018-02-17T03:52:27.844Z,2.30
2018-02-17T03:54:55.305Z,2.30
2018-02-17T03:57:22.766Z,2.30
2018-02-17T03:59:50.220Z,2.30
2018-02-17T04:02:17.673Z,2.30
2018-02-17T04:04:45.149Z,2.30
2018-02-17T04:07:12.597Z,2.30
2018-02-17T04:09:40.053Z,2.30
2018-02-17T04:12:07.505Z,2.30
2018-02-17T04:14:34.962Z,2.30
2018-02-17T04:17:02.416Z,2.40
2018-02-17T04:19:29.876Z,2.40
2018-02-17T04:21:57.329Z,2.40
2018-02-17T04:24:25.561Z,2.40
2018-02-17T04:26:53.017Z,2.40
2018-02-17T04:29:20.470Z,2.40
2018-02-17T04:31:47.928Z,2.40
2018-02-17T04:34:15.386Z,2.40
2018-02-17T04:36:42.837Z,2.40
2018-02-17T04:39:10.301Z,2.40
2018-02-17T04:41:43.352Z,2.50
2018-02-17T04:57:46.625Z,2.50
2018-02-17T05:00:15.652Z,2.50
2018-02-17T05:02:58.002Z,2.50
2018-02-17T05:05:40.320Z,2.50
2018-02-17T05:08:16.425Z,2.50
2018-02-17T05:10:43.885Z,2.50
2018-02-17T05:13:11.349Z,2.60
2018-02-17T05:18:58.256Z,2.60
2018-02-17T05:21:29.128Z,2.60
2018-02-17T05:24:00.509Z,2.60
2018-02-17T05:26:33.678Z,2.60
2018-02-17T05:29:16.018Z,2.60
2018-02-17T05:34:43.578Z,2.60
2018-02-17T05:37:11.041Z,2.70
2018-02-17T05:39:39.386Z,2.70
2018-02-17T05:42:25.608Z,2.70
2018-02-17T05:44:55.893Z,2.70
2018-02-17T05:47:34.037Z,2.70
2018-02-17T05:50:01.493Z,2.70
2018-02-17T05:52:28.953Z,2.70
2018-02-17T05:54:56.409Z,2.70
2018-02-17T05:57:23.868Z,2.70
2018-02-17T05:59:51.321Z,2.70
2018-02-17T06:02:18.776Z,2.80
2018-02-17T06:04:46.230Z,2.80
2018-02-17T06:07:13.688Z,2.80
2018-02-17T06:09:41.132Z,2.80
2018-02-17T06:12:08.620Z,2.80
2018-02-17T06:14:36.093Z,2.80
2018-02-17T06:17:04.305Z,2.80
2018-02-17T06:19:31.765Z,2.80
2018-02-17T06:21:59.217Z,2.80
2018-02-17T06:24:26.679Z,2.80
2018-02-17T06:26:54.130Z,2.80
2018-02-17T06:29:21.606Z,2.80
2018-02-17T06:31:49.073Z,2.80
2018-02-17T06:34:16.533Z,2.80
2018-02-17T06:36:43.985Z,2.80
2018-02-17T06:39:11.466Z,2.80
2018-02-17T06:41:39.677Z,2.80
2018-02-17T06:44:07.140Z,2.70
2018-02-17T06:46:34.593Z,2.80
2018-02-17T06:49:02.053Z,2.80
2018-02-17T06:51:29.505Z,2.80
2018-02-17T06:53:56.967Z,2.80
2018-02-17T06:56:24.431Z,2.80
2018-02-17T06:58:51.883Z,2.80
2018-02-17T07:01:19.333Z,2.80
2018-02-17T07:03:46.799Z,2.90
2018-02-17T07:06:14.498Z,2.90
2018-02-17T07:08:42.736Z,2.90
2018-02-17T07:11:10.191Z,2.80
2018-02-17T07:13:37.653Z,2.90
2018-02-17T07:16:05.136Z,2.90
2018-02-17T07:18:32.602Z,2.90
2018-02-17T07:21:00.062Z,2.90
2018-02-17T07:23:27.501Z,2.90
2018-02-17T07:25:54.978Z,2.90
2018-02-17T07:28:22.426Z,2.90
2018-02-17T07:30:49.894Z,3.00
2018-02-17T07:33:18.149Z,3.00
2018-02-17T07:35:45.609Z,3.00
2018-02-17T07:38:13.061Z,3.00
2018-02-17T07:40:40.521Z,3.00
2018-02-17T07:43:07.976Z,3.00
2018-02-17T07:45:35.435Z,3.10
2018-02-17T07:48:02.886Z,3.10
2018-02-17T07:50:30.350Z,3.10
2018-02-17T07:52:57.793Z,3.10
2018-02-17T07:55:25.252Z,3.10
2018-02-17T07:57:52.716Z,3.20
2018-02-17T08:00:20.174Z,3.20
2018-02-17T08:02:47.634Z,3.20
2018-02-17T08:05:15.086Z,3.20
2018-02-17T08:07:42.540Z,3.20
2018-02-17T08:10:10.001Z,3.20
2018-02-17T08:12:37.454Z,3.20
2018-02-17T08:15:04.925Z,3.20
2018-02-17T08:17:32.377Z,3.20
2018-02-17T08:19:59.837Z,3.30
2018-02-17T08:22:28.061Z,3.30
2018-02-17T08:24:55.533Z,3.30
2018-02-17T08:27:22.985Z,3.30
2018-02-17T08:29:50.447Z,3.30
2018-02-17T08:32:17.910Z,3.30
2018-02-17T08:34:46.137Z,3.30
2018-02-17T08:37:13.593Z,3.30
2018-02-17T08:39:41.067Z,3.40
2018-02-17T08:42:08.531Z,3.40
2018-02-17T08:44:35.982Z,3.30
2018-02-17T08:47:03.441Z,3.30
2018-02-17T08:49:30.889Z,3.40
2018-02-17T08:51:58.368Z,3.40
2018-02-17T08:54:25.821Z,3.40
2018-02-17T08:56:53.285Z,3.40
2018-02-17T08:59:20.738Z,3.50
2018-02-17T09:01:48.200Z,3.50
2018-02-17T09:04:16.253Z,3.50
2018-02-17T09:06:43.750Z,3.50
2018-02-17T09:09:11.207Z,3.50
2018-02-17T09:11:38.669Z,3.60
2018-02-17T09:14:06.124Z,3.60
2018-02-17T09:16:33.585Z,3.70
2018-02-17T09:19:01.038Z,3.70
2018-02-17T09:21:28.496Z,3.70
2018-02-17T09:23:55.946Z,3.80
2018-02-17T09:26:23.406Z,3.80
2018-02-17T09:28:50.859Z,3.80
2018-02-17T09:31:18.317Z,3.90
2018-02-17T09:33:45.773Z,3.90
2018-02-17T09:36:13.238Z,3.90
2018-02-17T09:38:40.697Z,3.90
2018-02-17T09:41:08.158Z,4.00
2018-02-17T09:43:35.622Z,4.00
2018-02-17T09:46:03.889Z,4.00
2018-02-17T09:48:31.310Z,4.00
2018-02-17T09:50:58.782Z,4.00
2018-02-17T09:53:26.244Z,4.00
2018-02-17T09:55:53.701Z,4.10
2018-02-17T09:58:21.164Z,4.10
2018-02-17T10:00:48.617Z,4.10
2018-02-17T10:03:16.081Z,4.10
2018-02-17T10:05:43.542Z,4.10
2018-02-17T10:08:10.997Z,4.10
2018-02-17T10:10:38.449Z,4.10
2018-02-17T10:13:05.909Z,4.10
2018-02-17T10:15:33.374Z,4.10
2018-02-17T10:18:00.841Z,4.10
2018-02-17T10:20:29.061Z,4.10
2018-02-17T10:22:56.523Z,4.10
2018-02-17T10:25:23.986Z,4.10
2018-02-17T10:27:52.215Z,4.10
2018-02-17T10:30:20.617Z,4.10
2018-02-17T10:32:48.075Z,4.20
2018-02-17T10:35:15.548Z,4.20
2018-02-17T10:37:43.002Z,4.10
2018-02-17T10:40:11.234Z,4.10
2018-02-17T10:42:39.458Z,4.10
2018-02-17T10:45:06.918Z,4.20
2018-02-17T10:47:34.373Z,4.20
2018-02-17T10:50:01.838Z,4.20
2018-02-17T10:52:29.290Z,4.20
2018-02-17T10:54:56.754Z,4.20
2018-02-17T10:57:24.210Z,4.20
2018-02-17T10:59:51.674Z,4.10
2018-02-17T11:02:19.126Z,4.10
2018-02-17T11:04:46.599Z,4.00
2018-02-17T11:07:14.046Z,3.90
2018-02-17T11:09:41.514Z,3.90
2018-02-17T11:12:09.744Z,3.80
2018-02-17T11:14:37.199Z,3.80
2018-02-17T11:17:04.650Z,3.80
2018-02-17T11:19:32.110Z,3.70
2018-02-17T11:21:59.566Z,3.70
2018-02-17T11:24:27.034Z,3.60
2018-02-17T11:26:54.481Z,3.60
2018-02-17T11:29:21.941Z,3.60
2018-02-17T11:31:49.398Z,3.50
2018-02-17T11:34:16.857Z,3.50
2018-02-17T11:36:44.329Z,3.50
2018-02-17T11:39:11.791Z,3.50
2018-02-17T11:41:39.241Z,3.50
2018-02-17T11:44:06.703Z,3.40
2018-02-17T11:46:34.154Z,3.40
2018-02-17T11:49:01.621Z,3.40
2018-02-17T11:51:29.085Z,3.40
2018-02-17T11:53:56.550Z,3.40
2018-02-17T11:56:24.780Z,3.40
2018-02-17T11:58:52.234Z,3.40
2018-02-17T12:01:19.710Z,3.40
2018-02-17T12:03:47.170Z,3.40
2018-02-17T12:06:14.617Z,3.40
2018-02-17T12:08:42.075Z,3.40
2018-02-17T12:11:09.537Z,3.30
2018-02-17T12:13:36.990Z,3.30
2018-02-17T12:16:04.453Z,3.30
2018-02-17T12:18:31.926Z,3.40
2018-02-17T12:20:59.388Z,3.30
2018-02-17T12:23:26.879Z,3.30
2018-02-17T12:25:54.337Z,3.30
2018-02-17T12:28:21.795Z,3.30
2018-02-17T12:30:49.259Z,3.30
2018-02-17T12:33:16.715Z,3.30
2018-02-17T12:35:44.166Z,3.30
2018-02-17T12:38:11.620Z,3.20
2018-02-17T12:40:39.081Z,3.30
2018-02-17T12:43:06.529Z,3.20
2018-02-17T12:45:33.989Z,3.20
2018-02-17T12:48:01.444Z,3.20
2018-02-17T12:50:28.906Z,3.20
2018-02-17T12:52:56.355Z,3.20
2018-02-17T12:55:23.839Z,3.20
2018-02-17T12:57:51.302Z,3.20
2018-02-17T13:00:18.751Z,3.20
2018-02-17T13:02:46.210Z,3.10
2018-02-17T13:05:13.661Z,3.20
2018-02-17T13:07:41.131Z,3.20
2018-02-17T13:10:08.621Z,3.20
2018-02-17T13:12:36.087Z,3.20
2018-02-17T13:15:04.302Z,3.20
2018-02-17T13:17:31.757Z,3.20
2018-02-17T13:19:59.217Z,3.20
2018-02-17T13:22:26.670Z,3.20
2018-02-17T13:24:54.126Z,3.20
2018-02-17T13:27:21.587Z,3.20
2018-02-17T13:29:49.042Z,3.10
2018-02-17T13:32:16.520Z,3.10
2018-02-17T13:34:43.972Z,3.10
2018-02-17T13:37:11.437Z,3.10
2018-02-17T13:39:38.893Z,3.20
2018-02-17T13:42:06.350Z,3.20
2018-02-17T13:44:33.801Z,3.10
2018-02-17T13:47:01.262Z,3.10
2018-02-17T13:49:28.718Z,3.10
2018-02-17T13:51:56.183Z,3.10
2018-02-17T13:54:23.637Z,3.10
2018-02-17T13:56:51.093Z,3.10
2018-02-17T13:59:18.558Z,3.10
2018-02-17T14:01:46.022Z,3.00
2018-02-17T14:04:13.476Z,3.10
2018-02-17T14:06:40.935Z,3.00
2018-02-17T14:09:08.397Z,3.00
2018-02-17T14:11:35.882Z,3.00
2018-02-17T14:14:04.102Z,3.00
2018-02-17T14:16:31.559Z,3.00
2018-02-17T14:18:59.026Z,3.00
2018-02-17T14:21:26.483Z,3.00
2018-02-17T14:23:53.950Z,3.00
2018-02-17T14:26:21.409Z,3.10
2018-02-17T14:28:48.861Z,3.00
2018-02-17T14:31:16.320Z,3.10
2018-02-17T14:33:43.777Z,3.10
2018-02-17T14:36:11.238Z,3.10
2018-02-17T14:38:38.690Z,3.10
2018-02-17T14:41:06.148Z,3.10
2018-02-17T14:43:33.593Z,3.10
2018-02-17T14:46:01.046Z,3.10
2018-02-17T14:48:28.527Z,3.10
2018-02-17T14:50:55.966Z,3.10
2018-02-17T14:53:23.419Z,3.10
2018-02-17T14:55:50.870Z,3.10
2018-02-17T14:58:18.333Z,3.10
2018-02-17T15:00:45.779Z,3.10
2018-02-17T15:03:13.235Z,3.10
2018-02-17T15:05:40.691Z,3.10
2018-02-17T15:08:08.161Z,3.00
2018-02-17T15:10:35.602Z,3.00
2018-02-17T15:13:03.056Z,3.00
2018-02-17T15:15:30.506Z,3.00
2018-02-17T15:17:58.060Z,3.00
2018-02-17T15:20:25.410Z,2.90
2018-02-17T15:22:52.859Z,2.90
2018-02-17T15:25:20.323Z,2.90
2018-02-17T15:27:47.774Z,2.90
2018-02-17T15:30:15.234Z,2.90
2018-02-17T15:32:42.703Z,2.90
2018-02-17T15:35:10.157Z,2.90
2018-02-17T15:37:37.611Z,2.80
2018-02-17T15:40:05.065Z,2.80
2018-02-17T15:42:32.522Z,2.80
2018-02-17T15:44:59.987Z,2.80
2018-02-17T15:47:27.429Z,2.80
2018-02-17T15:49:54.895Z,2.80
2018-02-17T15:52:22.355Z,2.70
2018-02-17T15:54:49.838Z,2.70
2018-02-17T15:57:17.294Z,2.70
2018-02-17T15:59:44.754Z,2.70
2018-02-17T16:02:12.216Z,2.70
2018-02-17T16:04:39.678Z,2.70
2018-02-17T16:07:07.129Z,2.60
2018-02-17T16:09:34.585Z,2.60
2018-02-17T16:12:02.046Z,2.60
2018-02-17T16:14:29.508Z,2.60
2018-02-17T16:16:57.725Z,2.60
2018-02-17T16:19:25.210Z,2.60
2018-02-17T16:21:52.669Z,2.60
2018-02-17T16:24:20.127Z,2.60
2018-02-17T16:26:47.590Z,2.60
2018-02-17T16:29:15.057Z,2.60
2018-02-17T16:31:42.518Z,2.60
2018-02-17T16:34:09.974Z,2.60
2018-02-17T16:36:37.439Z,2.60
2018-02-17T16:39:05.658Z,2.50
2018-02-17T16:41:33.130Z,2.50
2018-02-17T16:44:00.581Z,2.50
2018-02-17T16:46:28.056Z,2.50
2018-02-17T16:48:55.502Z,2.40
2018-02-17T16:51:23.731Z,2.40
2018-02-17T16:53:51.181Z,2.40
2018-02-17T16:56:19.413Z,2.40
2018-02-17T16:58:46.861Z,2.40
2018-02-17T17:01:14.326Z,2.40
2018-02-17T17:03:41.781Z,2.40
2018-02-17T17:06:09.241Z,2.40
2018-02-17T17:08:36.697Z,2.40
2018-02-17T17:11:04.166Z,2.30
2018-02-17T17:13:31.623Z,2.30
2018-02-17T17:15:59.082Z,2.30
2018-02-17T17:18:26.533Z,2.30
2018-02-17T17:20:54.000Z,2.30
2018-02-17T17:23:21.454Z,2.30
2018-02-17T17:25:48.922Z,2.30
2018-02-17T17:28:17.137Z,2.40
2018-02-17T17:30:44.605Z,2.40
2018-02-17T17:33:12.071Z,2.40
2018-02-17T17:35:39.530Z,2.30
2018-02-17T17:38:06.986Z,2.30
2018-02-17T17:40:34.447Z,2.30
2018-02-17T17:43:01.921Z,2.30
2018-02-17T17:45:29.370Z,2.30
2018-02-17T17:47:56.857Z,2.30
2018-02-17T17:50:24.294Z,2.30
2018-02-17T17:52:51.762Z,2.30
2018-02-17T17:55:19.212Z,2.30
2018-02-17T17:57:46.677Z,2.30
2018-02-17T18:00:14.902Z,2.30
2018-02-17T18:02:42.381Z,2.30
2018-02-17T18:05:09.833Z,2.30
2018-02-17T18:07:37.295Z,2.30
2018-02-17T18:10:04.754Z,2.20
2018-02-17T18:12:32.213Z,2.20
2018-02-17T18:14:59.677Z,2.20
2018-02-17T18:17:27.145Z,2.20
2018-02-17T18:19:55.372Z,2.20
2018-02-17T18:22:22.835Z,2.20
2018-02-17T18:24:50.290Z,2.20
2018-02-17T18:27:17.774Z,2.20
2018-02-17T18:29:45.250Z,2.10
2018-02-17T18:32:13.539Z,2.10
2018-02-17T18:34:40.937Z,2.10
2018-02-17T18:37:08.394Z,2.00
2018-02-17T18:39:35.849Z,2.00
2018-02-17T18:42:03.301Z,2.00
2018-02-17T18:44:30.774Z,2.00
2018-02-17T18:46:58.223Z,2.00
2018-02-17T18:49:25.687Z,2.00
2018-02-17T18:51:53.907Z,2.00
2018-02-17T18:54:22.141Z,2.00
2018-02-17T18:56:49.594Z,2.00
2018-02-17T18:59:17.053Z,2.00
2018-02-17T19:01:44.517Z,1.90
2018-02-17T19:04:11.979Z,1.90
2018-02-17T19:06:39.440Z,1.90
2018-02-17T19:09:06.904Z,2.00
2018-02-17T19:11:34.351Z,1.90
2018-02-17T19:14:01.817Z,2.00
2018-02-17T19:16:29.281Z,2.00
2018-02-17T19:18:57.509Z,2.00
2018-02-17T19:21:24.966Z,2.00
2018-02-17T19:23:52.438Z,2.00
2018-02-17T19:26:20.664Z,2.00
2018-02-17T19:28:48.886Z,2.00
2018-02-17T19:31:16.336Z,2.00
2018-02-17T19:33:43.823Z,2.00
2018-02-17T19:36:11.271Z,2.00
2018-02-17T19:38:38.742Z,2.00
2018-02-17T19:41:06.190Z,2.00
2018-02-17T19:43:33.657Z,2.00
2018-02-17T19:46:01.110Z,2.00
2018-02-17T19:48:28.572Z,2.00
2018-02-17T19:50:56.790Z,2.00
2018-02-17T19:53:24.256Z,1.90
2018-02-17T19:55:51.714Z,2.00
2018-02-17T19:58:19.181Z,2.00
2018-02-17T20:00:46.633Z,2.00
2018-02-17T20:03:14.098Z,2.00
2018-02-17T20:05:41.554Z,2.00
2018-02-17T20:08:09.014Z,2.00
2018-02-17T20:10:36.469Z,2.00
2018-02-17T20:13:03.926Z,1.90
2018-02-17T20:15:31.377Z,1.90
2018-02-17T20:17:58.834Z,2.00
2018-02-17T20:20:26.294Z,2.00
2018-02-17T20:22:53.754Z,2.00
2018-02-17T20:25:21.221Z,2.00
2018-02-17T20:27:48.669Z,2.00
2018-02-17T20:30:16.136Z,1.90
2018-02-17T20:32:43.591Z,1.90
2018-02-17T20:35:11.054Z,1.90
2018-02-17T20:37:38.509Z,1.80
2018-02-17T20:40:05.976Z,1.90
2018-02-17T20:42:33.431Z,1.80
2018-02-17T20:45:00.891Z,1.80
2018-02-17T20:47:29.115Z,1.80
2018-02-17T20:49:56.590Z,1.80
2018-02-17T20:52:24.034Z,1.80
2018-02-17T20:54:51.498Z,1.80
2018-02-17T20:57:19.796Z,1.80
2018-02-17T20:59:47.230Z,1.80
2018-02-17T21:02:14.689Z,1.80
2018-02-17T21:04:42.148Z,1.80
2018-02-17T21:07:10.373Z,1.80
2018-02-17T21:09:38.602Z,1.80
2018-02-17T21:12:06.062Z,1.80
2018-02-17T21:14:33.530Z,1.80
2018-02-17T21:17:00.989Z,1.80
2018-02-17T21:19:28.457Z,1.80
2018-02-17T21:21:55.906Z,1.80
2018-02-17T21:24:23.388Z,1.80
2018-02-17T21:26:51.612Z,1.80
2018-02-17T21:29:19.066Z,1.80
2018-02-17T21:31:46.533Z,1.80
2018-02-17T21:34:13.994Z,1.80
2018-02-17T21:36:41.461Z,1.80
2018-02-17T21:39:08.925Z,1.80
2018-02-17T21:41:36.384Z,1.80
2018-02-17T21:44:04.602Z,1.80
2018-02-17T21:46:32.077Z,1.80
2018-02-17T21:48:59.537Z,1.80
2018-02-17T21:51:26.997Z,1.80
2018-02-17T21:53:54.450Z,1.80
2018-02-17T21:56:21.921Z,1.80
2018-02-17T21:58:49.378Z,1.80
2018-02-17T22:01:16.841Z,1.80
2018-02-17T22:03:44.293Z,1.80
2018-02-17T22:06:11.782Z,1.80
2018-02-17T22:08:40.006Z,1.80
2018-02-17T22:11:07.473Z,1.80
2018-02-17T22:13:34.934Z,1.80
2018-02-17T22:16:02.400Z,1.80
2018-02-17T22:18:29.849Z,1.80
2018-02-17T22:20:57.310Z,1.70
2018-02-17T22:23:24.779Z,1.70
2018-02-17T22:25:52.230Z,1.70
2018-02-17T22:28:19.698Z,1.70
2018-02-17T22:30:47.936Z,1.70
2018-02-17T22:33:15.389Z,1.70
2018-02-17T22:35:42.846Z,1.70
2018-02-17T22:38:10.305Z,1.70
2018-02-17T22:40:37.795Z,1.70
2018-02-17T22:43:05.248Z,1.80
2018-02-17T22:45:32.726Z,1.80
2018-02-17T22:48:00.959Z,1.80
2018-02-17T22:50:28.414Z,1.80
2018-02-17T22:52:55.881Z,1.80
2018-02-17T22:55:23.334Z,1.80
2018-02-17T22:57:50.802Z,1.80
2018-02-17T23:00:30.119Z,1.80
2018-02-17T23:02:58.175Z,1.70
2018-02-17T23:05:25.959Z,1.70
2018-02-17T23:07:55.344Z,1.70
2018-02-17T23:10:23.147Z,1.60
2018-02-17T23:12:51.107Z,1.60
2018-02-17T23:15:19.224Z,1.60
2018-02-17T23:17:47.221Z,1.60
2018-02-17T23:20:15.215Z,1.60
2018-02-17T23:22:43.038Z,1.60
2018-02-17T23:25:12.231Z,1.50
2018-02-17T23:27:40.316Z,1.50
2018-02-17T23:30:08.109Z,1.50
2018-02-17T23:32:36.785Z,1.40
2018-02-17T23:35:04.635Z,1.40
2018-02-17T23:37:32.739Z,1.40
2018-02-17T23:40:01.527Z,1.40
2018-02-17T23:42:29.290Z,1.30
2018-02-17T23:44:57.286Z,1.30
2018-02-17T23:47:25.332Z,1.30
2018-02-17T23:49:53.140Z,1.30
2018-02-17T23:52:20.749Z,1.20
2018-02-17T23:54:49.235Z,1.20
2018-02-17T23:57:18.039Z,1.20
2018-02-17T23:59:45.772Z,1.20
